createdAt,value
2018-12-19T00:00:58.494Z,997.03
2018-12-19T00:01:58.511Z,997.02
2018-12-19T00:02:58.526Z,997.07
2018-12-19T00:03:58.542Z,997.04
2018-12-19T00:04:58.559Z,997.04
2018-12-19T00:05:58.576Z,997.03
2018-12-19T00:06:58.593Z,996.99
2018-12-19T00:07:58.608Z,996.91
2018-12-19T00:09:03.095Z,996.91
2018-12-19T00:09:58.645Z,996.86
2018-12-19T00:10:58.711Z,996.74
2018-12-19T00:11:58.676Z,996.7
2018-12-19T00:12:58.696Z,996.62
2018-12-19T00:13:58.708Z,996.54
2018-12-19T00:14:58.728Z,996.47
2018-12-19T00:15:58.745Z,996.39
2018-12-19T00:16:58.762Z,996.27
2018-12-19T00:17:58.777Z,996.16
2018-12-19T00:18:58.789Z,996.19
2018-12-19T00:19:58.809Z,996.29
2018-12-19T00:20:58.827Z,996.33
2018-12-19T00:21:58.839Z,996.44
2018-12-19T00:22:58.856Z,996.49
2018-12-19T00:23:58.877Z,996.58
2018-12-19T00:24:58.888Z,996.65
2018-12-19T00:25:58.904Z,996.64
2018-12-19T00:26:58.922Z,996.63
2018-12-19T00:27:58.944Z,996.69
2018-12-19T00:28:58.955Z,996.69
2018-12-19T00:29:58.971Z,996.72
2018-12-19T00:30:59.137Z,996.74
2018-12-19T00:31:59.002Z,996.65
2018-12-19T00:32:59.021Z,996.68
2018-12-19T00:33:59.038Z,996.7
2018-12-19T00:34:59.053Z,996.7
2018-12-19T00:35:59.069Z,996.71
2018-12-19T00:36:59.086Z,996.81
2018-12-19T00:37:59.103Z,996.82
2018-12-19T00:38:59.118Z,996.79
2018-12-19T00:39:59.134Z,996.87
2018-12-19T00:40:59.151Z,996.93
2018-12-19T00:41:59.169Z,997
2018-12-19T00:42:59.184Z,996.97
2018-12-19T00:43:59.201Z,996.99
2018-12-19T00:44:59.221Z,997.04
2018-12-19T00:45:59.236Z,997.06
2018-12-19T00:46:59.250Z,996.98
2018-12-19T00:47:59.271Z,997
2018-12-19T00:48:59.283Z,997.01
2018-12-19T00:49:59.300Z,996.92
2018-12-19T00:50:59.320Z,996.96
2018-12-19T00:51:59.337Z,996.95
2018-12-19T00:52:59.352Z,996.94
2018-12-19T00:53:59.370Z,996.96
2018-12-19T00:54:59.383Z,996.95
2018-12-19T00:55:59.401Z,996.91
2018-12-19T00:56:59.419Z,996.83
2018-12-19T00:57:59.433Z,996.76
2018-12-19T00:58:59.448Z,996.72
2018-12-19T00:59:59.466Z,996.58
2018-12-19T01:00:59.483Z,996.51
2018-12-19T01:01:59.503Z,996.54
2018-12-19T01:02:59.519Z,996.49
2018-12-19T01:03:59.536Z,996.49
2018-12-19T01:04:59.549Z,996.47
2018-12-19T01:05:59.566Z,996.45
2018-12-19T01:06:59.582Z,996.48
2018-12-19T01:07:59.597Z,996.52
2018-12-19T01:08:59.615Z,996.49
2018-12-19T01:09:59.634Z,996.42
2018-12-19T01:10:59.646Z,996.42
2018-12-19T01:11:59.666Z,996.47
2018-12-19T01:12:59.684Z,996.51
2018-12-19T01:13:59.699Z,996.55
2018-12-19T01:14:59.719Z,996.56
2018-12-19T01:15:59.735Z,996.64
2018-12-19T01:16:59.749Z,996.66
2018-12-19T01:17:59.769Z,996.69
2018-12-19T01:18:59.782Z,996.67
2018-12-19T01:19:59.797Z,996.65
2018-12-19T01:20:59.814Z,996.64
2018-12-19T01:21:59.837Z,996.69
2018-12-19T01:22:59.848Z,996.6
2018-12-19T01:23:59.868Z,996.62
2018-12-19T01:24:59.882Z,996.5
2018-12-19T01:25:59.898Z,996.48
2018-12-19T01:27:00.068Z,996.58
2018-12-19T01:27:59.932Z,996.6
2018-12-19T01:28:59.947Z,996.67
2018-12-19T01:29:59.965Z,996.67
2018-12-19T01:30:59.984Z,996.65
2018-12-19T01:31:59.998Z,996.67
2018-12-19T01:33:00.014Z,996.61
2018-12-19T01:34:00.039Z,996.65
2018-12-19T01:35:00.050Z,996.63
2018-12-19T01:36:00.068Z,996.66
2018-12-19T01:37:00.081Z,996.67
2018-12-19T01:38:00.096Z,996.61
2018-12-19T01:39:00.118Z,996.48
2018-12-19T01:40:00.133Z,996.55
2018-12-19T01:41:00.147Z,996.46
2018-12-19T01:42:00.314Z,996.36
2018-12-19T01:43:00.178Z,996.4
2018-12-19T01:44:00.198Z,996.33
2018-12-19T01:45:00.213Z,996.31
2018-12-19T01:46:00.230Z,996.34
2018-12-19T01:47:00.247Z,996.3
2018-12-19T01:48:00.262Z,996.19
2018-12-19T01:49:00.278Z,996.16
2018-12-19T01:50:00.296Z,996.19
2018-12-19T01:51:00.312Z,996.23
2018-12-19T01:52:00.330Z,996.3
2018-12-19T01:53:00.350Z,996.28
2018-12-19T01:54:00.366Z,996.2
2018-12-19T01:55:00.381Z,996.26
2018-12-19T01:56:00.400Z,996.31
2018-12-19T01:57:00.416Z,996.17
2018-12-19T01:58:00.433Z,996.16
2018-12-19T01:59:00.449Z,996.1
2018-12-19T02:00:00.463Z,996.16
2018-12-19T02:01:00.480Z,996.19
2018-12-19T02:02:00.646Z,996.13
2018-12-19T02:03:00.514Z,996.21
2018-12-19T02:04:00.529Z,996.23
2018-12-19T02:05:00.550Z,996.24
2018-12-19T02:06:00.564Z,996.31
2018-12-19T02:07:00.578Z,996.2
2018-12-19T02:08:00.597Z,996.29
2018-12-19T02:09:00.620Z,996.28
2018-12-19T02:10:00.632Z,996.21
2018-12-19T02:11:00.647Z,996.3
2018-12-19T02:12:00.662Z,996.27
2018-12-19T02:13:00.679Z,996.15
2018-12-19T02:14:00.696Z,996.19
2018-12-19T02:15:00.717Z,996.14
2018-12-19T02:16:00.730Z,996.14
2018-12-19T02:17:00.746Z,996.06
2018-12-19T02:18:00.767Z,996.07
2018-12-19T02:19:00.782Z,996.02
2018-12-19T02:20:00.798Z,996.04
2018-12-19T02:21:00.818Z,996
2018-12-19T02:22:00.833Z,996.03
2018-12-19T02:23:00.846Z,996.06
2018-12-19T02:24:00.865Z,995.99
2018-12-19T02:25:00.880Z,995.96
2018-12-19T02:26:00.897Z,995.9
2018-12-19T02:27:00.914Z,995.93
2018-12-19T02:28:00.931Z,995.9
2018-12-19T02:29:00.947Z,995.89
2018-12-19T02:30:00.965Z,995.89
2018-12-19T02:31:00.982Z,995.96
2018-12-19T02:32:00.997Z,995.92
2018-12-19T02:33:01.013Z,995.92
2018-12-19T02:34:01.031Z,995.83
2018-12-19T02:35:01.048Z,995.81
2018-12-19T02:36:01.066Z,995.78
2018-12-19T02:37:01.085Z,995.79
2018-12-19T02:38:01.096Z,995.83
2018-12-19T02:39:01.116Z,995.79
2018-12-19T02:40:01.133Z,995.85
2018-12-19T02:41:01.150Z,995.83
2018-12-19T02:42:01.164Z,995.83
2018-12-19T02:43:01.187Z,995.92
2018-12-19T02:44:01.206Z,995.89
2018-12-19T02:45:01.216Z,995.9
2018-12-19T02:46:01.235Z,995.92
2018-12-19T02:47:01.248Z,995.94
2018-12-19T02:48:01.268Z,995.95
2018-12-19T02:49:01.281Z,996
2018-12-19T02:50:01.302Z,995.91
2018-12-19T02:51:01.322Z,995.89
2018-12-19T02:52:01.336Z,995.89
2018-12-19T02:53:01.349Z,995.91
2018-12-19T02:54:01.369Z,995.85
2018-12-19T02:55:01.392Z,995.78
2018-12-19T02:56:01.400Z,995.71
2018-12-19T02:57:01.419Z,995.8
2018-12-19T02:58:01.432Z,995.84
2018-12-19T02:59:01.450Z,995.86
2018-12-19T03:00:01.466Z,995.88
2018-12-19T03:01:01.487Z,995.92
2018-12-19T03:02:01.502Z,995.87
2018-12-19T03:03:01.537Z,995.87
2018-12-19T03:04:01.535Z,995.84
2018-12-19T03:05:01.549Z,995.92
2018-12-19T03:06:01.567Z,995.88
2018-12-19T03:07:01.584Z,995.94
2018-12-19T03:08:01.599Z,995.9
2018-12-19T03:09:01.616Z,995.94
2018-12-19T03:10:01.733Z,995.97
2018-12-19T03:11:01.649Z,996
2018-12-19T03:12:01.668Z,995.96
2018-12-19T03:13:01.685Z,995.95
2018-12-19T03:14:01.699Z,995.97
2018-12-19T03:15:01.716Z,995.99
2018-12-19T03:16:01.737Z,996.09
2018-12-19T03:17:01.767Z,996.07
2018-12-19T03:18:01.765Z,996.08
2018-12-19T03:19:01.782Z,996.07
2018-12-19T03:20:01.799Z,996.07
2018-12-19T03:21:01.816Z,996.09
2018-12-19T03:22:01.832Z,996.1
2018-12-19T03:23:01.863Z,996.1
2018-12-19T03:24:01.866Z,996.16
2018-12-19T03:25:01.885Z,996.2
2018-12-19T03:26:01.904Z,996.25
2018-12-19T03:27:01.917Z,996.2
2018-12-19T03:28:01.933Z,996.25
2018-12-19T03:29:01.949Z,996.18
2018-12-19T03:30:01.968Z,996.22
2018-12-19T03:31:01.987Z,996.17
2018-12-19T03:32:02.006Z,996.2
2018-12-19T03:33:02.017Z,996.19
2018-12-19T03:34:02.038Z,996.24
2018-12-19T03:35:02.057Z,996.23
2018-12-19T03:36:02.071Z,996.25
2018-12-19T03:37:02.085Z,996.24
2018-12-19T03:38:02.104Z,996.3
2018-12-19T03:39:02.117Z,996.29
2018-12-19T03:40:02.136Z,996.34
2018-12-19T03:41:02.152Z,996.4
2018-12-19T03:42:02.167Z,996.43
2018-12-19T03:43:02.185Z,996.45
2018-12-19T03:44:02.203Z,996.45
2018-12-19T03:45:02.218Z,996.42
2018-12-19T03:46:02.236Z,996.41
2018-12-19T03:47:02.251Z,996.34
2018-12-19T03:48:02.274Z,996.29
2018-12-19T03:49:02.286Z,996.31
2018-12-19T03:50:02.303Z,996.3
2018-12-19T03:51:02.323Z,996.28
2018-12-19T03:52:02.335Z,996.32
2018-12-19T03:53:02.357Z,996.27
2018-12-19T03:54:02.370Z,996.25
2018-12-19T03:55:02.386Z,996.28
2018-12-19T03:56:02.411Z,996.29
2018-12-19T03:57:02.422Z,996.29
2018-12-19T03:58:02.440Z,996.35
2018-12-19T03:59:02.455Z,996.3
2018-12-19T04:00:02.471Z,996.32
2018-12-19T04:01:02.491Z,996.34
2018-12-19T04:02:02.509Z,996.33
2018-12-19T04:03:02.528Z,996.29
2018-12-19T04:04:02.537Z,996.29
2018-12-19T04:05:02.554Z,996.34
2018-12-19T04:06:02.571Z,996.34
2018-12-19T04:07:02.601Z,996.27
2018-12-19T04:08:02.603Z,996.24
2018-12-19T04:09:02.620Z,996.24
2018-12-19T04:10:02.639Z,996.23
2018-12-19T04:11:02.657Z,996.17
2018-12-19T04:12:02.675Z,996.12
2018-12-19T04:13:02.687Z,996.1
2018-12-19T04:14:02.711Z,996.09
2018-12-19T04:15:02.722Z,996.06
2018-12-19T04:16:02.737Z,996.06
2018-12-19T04:17:02.771Z,996.08
2018-12-19T04:18:02.772Z,996.09
2018-12-19T04:19:02.793Z,996.07
2018-12-19T04:20:02.805Z,996.04
2018-12-19T04:21:02.822Z,995.98
2018-12-19T04:22:02.840Z,996.04
2018-12-19T04:23:02.857Z,995.95
2018-12-19T04:24:02.872Z,995.97
2018-12-19T04:25:02.890Z,996
2018-12-19T04:26:02.905Z,996
2018-12-19T04:27:02.924Z,996.1
2018-12-19T04:28:02.940Z,996.11
2018-12-19T04:29:02.957Z,996.14
2018-12-19T04:30:02.977Z,996.1
2018-12-19T04:31:02.990Z,996.13
2018-12-19T04:32:03.007Z,996.16
2018-12-19T04:33:03.022Z,996.18
2018-12-19T04:34:03.039Z,996.19
2018-12-19T04:35:03.060Z,996.2
2018-12-19T04:36:03.079Z,996.18
2018-12-19T04:37:03.091Z,996.14
2018-12-19T04:38:03.107Z,996.02
2018-12-19T04:39:03.124Z,996.03
2018-12-19T04:40:05.554Z,996.14
2018-12-19T04:41:03.159Z,996.13
2018-12-19T04:42:03.173Z,996.15
2018-12-19T04:43:03.193Z,996.1
2018-12-19T04:44:03.207Z,996.1
2018-12-19T04:45:03.224Z,996.05
2018-12-19T04:46:03.245Z,996.01
2018-12-19T04:47:03.258Z,995.92
2018-12-19T04:48:03.276Z,995.91
2018-12-19T04:49:03.298Z,995.85
2018-12-19T04:50:03.308Z,995.81
2018-12-19T04:51:03.328Z,995.81
2018-12-19T04:52:03.345Z,995.7
2018-12-19T04:53:03.360Z,995.69
2018-12-19T04:54:03.383Z,995.65
2018-12-19T04:55:03.392Z,995.61
2018-12-19T04:56:03.410Z,995.59
2018-12-19T04:57:03.431Z,995.59
2018-12-19T04:58:03.444Z,995.62
2018-12-19T04:59:03.460Z,995.66
2018-12-19T05:00:03.475Z,995.69
2018-12-19T05:01:03.497Z,995.77
2018-12-19T05:02:03.512Z,995.78
2018-12-19T05:03:03.527Z,995.81
2018-12-19T05:04:03.543Z,995.78
2018-12-19T05:05:03.560Z,995.76
2018-12-19T05:06:03.586Z,995.78
2018-12-19T05:07:03.597Z,995.75
2018-12-19T05:08:03.614Z,995.71
2018-12-19T05:09:03.627Z,995.74
2018-12-19T05:10:03.645Z,995.74
2018-12-19T05:11:03.659Z,995.76
2018-12-19T05:12:03.677Z,995.73
2018-12-19T05:13:03.695Z,995.73
2018-12-19T05:14:03.864Z,995.74
2018-12-19T05:15:03.731Z,995.76
2018-12-19T05:16:03.748Z,995.8
2018-12-19T05:17:03.763Z,995.85
2018-12-19T05:18:03.778Z,995.86
2018-12-19T05:19:03.795Z,995.87
2018-12-19T05:20:03.813Z,995.9
2018-12-19T05:21:03.830Z,995.88
2018-12-19T05:22:03.847Z,995.9
2018-12-19T05:23:03.862Z,995.92
2018-12-19T05:24:03.877Z,995.94
2018-12-19T05:25:03.894Z,995.92
2018-12-19T05:26:03.912Z,995.97
2018-12-19T05:27:03.931Z,995.97
2018-12-19T05:28:03.944Z,995.91
2018-12-19T05:29:03.961Z,995.92
2018-12-19T05:30:03.978Z,995.9
2018-12-19T05:31:03.996Z,995.93
2018-12-19T05:32:04.012Z,995.94
2018-12-19T05:33:04.031Z,995.91
2018-12-19T05:34:04.048Z,995.91
2018-12-19T05:35:04.063Z,995.9
2018-12-19T05:36:04.080Z,995.92
2018-12-19T05:37:04.097Z,995.86
2018-12-19T05:38:04.113Z,995.87
2018-12-19T05:39:04.130Z,995.88
2018-12-19T05:40:04.150Z,995.86
2018-12-19T05:41:04.163Z,995.83
2018-12-19T05:42:04.179Z,995.86
2018-12-19T05:43:04.196Z,995.89
2018-12-19T05:44:04.213Z,995.83
2018-12-19T05:45:04.229Z,995.87
2018-12-19T05:46:04.250Z,995.86
2018-12-19T05:47:04.264Z,995.88
2018-12-19T05:48:04.278Z,995.88
2018-12-19T05:49:04.300Z,995.96
2018-12-19T05:50:04.313Z,995.95
2018-12-19T05:51:04.330Z,995.93
2018-12-19T05:52:04.347Z,995.93
2018-12-19T05:53:04.364Z,995.92
2018-12-19T05:54:04.380Z,995.93
2018-12-19T05:55:04.397Z,995.85
2018-12-19T05:56:04.412Z,995.86
2018-12-19T05:57:04.429Z,995.92
2018-12-19T05:58:04.448Z,995.88
2018-12-19T05:59:04.465Z,995.86
2018-12-19T06:00:04.486Z,995.87
2018-12-19T06:01:04.503Z,995.75
2018-12-19T06:02:04.513Z,995.74
2018-12-19T06:03:04.531Z,995.75
2018-12-19T06:04:04.547Z,995.76
2018-12-19T06:05:04.563Z,995.79
2018-12-19T06:06:04.585Z,995.76
2018-12-19T06:07:04.599Z,995.84
2018-12-19T06:08:04.614Z,995.8
2018-12-19T06:09:04.632Z,995.7
2018-12-19T06:10:04.651Z,995.7
2018-12-19T06:11:04.665Z,995.7
2018-12-19T06:12:04.684Z,995.77
2018-12-19T06:13:04.699Z,995.75
2018-12-19T06:14:04.719Z,995.78
2018-12-19T06:15:04.739Z,995.78
2018-12-19T06:16:04.750Z,995.82
2018-12-19T06:17:04.764Z,995.85
2018-12-19T06:18:04.782Z,995.87
2018-12-19T06:19:04.798Z,995.85
2018-12-19T06:20:04.815Z,995.83
2018-12-19T06:21:04.832Z,995.78
2018-12-19T06:22:04.907Z,995.83
2018-12-19T06:23:04.870Z,995.78
2018-12-19T06:24:04.887Z,995.82
2018-12-19T06:25:04.905Z,995.76
2018-12-19T06:26:04.921Z,995.81
2018-12-19T06:27:04.933Z,995.78
2018-12-19T06:28:04.950Z,995.82
2018-12-19T06:29:04.967Z,995.86
2018-12-19T06:30:04.986Z,995.87
2018-12-19T06:31:05.001Z,995.85
2018-12-19T06:32:05.018Z,995.9
2018-12-19T06:33:05.036Z,995.93
2018-12-19T06:34:05.051Z,995.94
2018-12-19T06:35:05.067Z,995.92
2018-12-19T06:36:05.087Z,995.89
2018-12-19T06:37:05.103Z,995.94
2018-12-19T06:38:05.116Z,995.99
2018-12-19T06:39:05.135Z,995.99
2018-12-19T06:40:05.162Z,996.02
2018-12-19T06:41:05.169Z,996
2018-12-19T06:42:05.185Z,996.06
2018-12-19T06:43:05.201Z,996.03
2018-12-19T06:44:05.218Z,996.05
2018-12-19T06:45:05.234Z,996.07
2018-12-19T06:46:05.252Z,996.06
2018-12-19T06:47:05.269Z,995.98
2018-12-19T06:48:05.287Z,995.97
2018-12-19T06:49:05.315Z,996.03
2018-12-19T06:50:05.320Z,995.95
2018-12-19T06:51:05.340Z,995.94
2018-12-19T06:52:05.356Z,995.95
2018-12-19T06:53:05.373Z,995.89
2018-12-19T06:54:05.386Z,995.92
2018-12-19T06:55:05.406Z,995.95
2018-12-19T06:56:05.419Z,995.91
2018-12-19T06:57:05.441Z,995.86
2018-12-19T06:58:05.456Z,995.9
2018-12-19T06:59:05.469Z,995.88
2018-12-19T07:00:05.485Z,995.84
2018-12-19T07:01:05.506Z,995.85
2018-12-19T07:02:05.519Z,995.83
2018-12-19T07:03:05.536Z,995.82
2018-12-19T07:04:05.551Z,995.85
2018-12-19T07:05:05.723Z,995.81
2018-12-19T07:06:05.586Z,995.82
2018-12-19T07:07:05.605Z,995.82
2018-12-19T07:08:05.619Z,995.89
2018-12-19T07:09:05.637Z,995.89
2018-12-19T07:10:05.666Z,995.83
2018-12-19T07:11:05.670Z,995.86
2018-12-19T07:12:05.687Z,995.85
2018-12-19T07:13:05.707Z,995.83
2018-12-19T07:14:05.720Z,995.85
2018-12-19T07:15:05.736Z,995.86
2018-12-19T07:16:05.754Z,995.93
2018-12-19T07:17:05.771Z,995.92
2018-12-19T07:18:05.787Z,995.95
2018-12-19T07:19:05.808Z,995.93
2018-12-19T07:20:05.821Z,995.96
2018-12-19T07:21:05.840Z,995.95
2018-12-19T07:22:05.855Z,995.95
2018-12-19T07:23:05.872Z,995.99
2018-12-19T07:24:05.892Z,995.92
2018-12-19T07:25:05.905Z,995.87
2018-12-19T07:26:05.921Z,995.89
2018-12-19T07:27:05.939Z,995.88
2018-12-19T07:28:05.955Z,995.82
2018-12-19T07:29:05.972Z,995.81
2018-12-19T07:30:05.993Z,995.81
2018-12-19T07:31:06.010Z,995.84
2018-12-19T07:32:06.029Z,995.9
2018-12-19T07:33:06.039Z,995.83
2018-12-19T07:34:06.056Z,995.84
2018-12-19T07:35:06.078Z,995.81
2018-12-19T07:36:06.095Z,995.87
2018-12-19T07:37:06.109Z,995.9
2018-12-19T07:38:06.128Z,995.87
2018-12-19T07:39:06.142Z,995.85
2018-12-19T07:40:06.156Z,995.76
2018-12-19T07:41:06.177Z,995.77
2018-12-19T07:42:06.199Z,995.82
2018-12-19T07:43:06.207Z,995.84
2018-12-19T07:44:06.224Z,995.89
2018-12-19T07:45:06.295Z,995.91
2018-12-19T07:46:06.259Z,995.92
2018-12-19T07:47:06.273Z,995.93
2018-12-19T07:48:06.292Z,995.86
2018-12-19T07:49:06.309Z,995.87
2018-12-19T07:50:06.330Z,995.93
2018-12-19T07:51:06.344Z,995.91
2018-12-19T07:52:06.358Z,995.97
2018-12-19T07:53:06.375Z,995.97
2018-12-19T07:54:06.390Z,995.99
2018-12-19T07:55:06.408Z,995.95
2018-12-19T07:56:06.430Z,995.98
2018-12-19T07:57:06.444Z,995.98
2018-12-19T07:58:06.459Z,995.93
2018-12-19T07:59:06.477Z,995.94
2018-12-19T08:00:06.494Z,995.96
2018-12-19T08:01:06.510Z,995.99
2018-12-19T08:02:06.526Z,996
2018-12-19T08:03:06.544Z,996.02
2018-12-19T08:04:06.560Z,996.02
2018-12-19T08:05:06.580Z,996.02
2018-12-19T08:06:06.594Z,996.06
2018-12-19T08:07:06.615Z,996.02
2018-12-19T08:08:06.628Z,996.12
2018-12-19T08:09:06.648Z,996.15
2018-12-19T08:10:06.665Z,996.12
2018-12-19T08:11:06.679Z,996.12
2018-12-19T08:12:06.695Z,996.08
2018-12-19T08:13:06.712Z,996.12
2018-12-19T08:14:06.729Z,996.13
2018-12-19T08:15:06.745Z,996.1
2018-12-19T08:16:06.762Z,996.06
2018-12-19T08:17:06.783Z,996.07
2018-12-19T08:18:06.797Z,996.13
2018-12-19T08:19:06.818Z,996.09
2018-12-19T08:20:06.829Z,996.1
2018-12-19T08:21:06.853Z,996.12
2018-12-19T08:22:06.866Z,996.14
2018-12-19T08:23:06.880Z,996.21
2018-12-19T08:24:06.901Z,996.22
2018-12-19T08:25:06.912Z,996.22
2018-12-19T08:26:06.930Z,996.25
2018-12-19T08:27:06.948Z,996.18
2018-12-19T08:28:06.963Z,996.2
2018-12-19T08:29:06.981Z,996.16
2018-12-19T08:30:07.001Z,996.16
2018-12-19T08:31:07.013Z,996.22
2018-12-19T08:32:07.037Z,996.23
2018-12-19T08:33:07.047Z,996.22
2018-12-19T08:34:07.064Z,996.24
2018-12-19T08:35:07.081Z,996.24
2018-12-19T08:36:07.098Z,996.34
2018-12-19T08:37:07.119Z,996.28
2018-12-19T08:38:07.134Z,996.28
2018-12-19T08:39:07.149Z,996.28
2018-12-19T08:40:07.165Z,996.28
2018-12-19T08:41:07.182Z,996.28
2018-12-19T08:42:07.203Z,996.3
2018-12-19T08:43:07.215Z,996.24
2018-12-19T08:44:07.233Z,996.26
2018-12-19T08:45:07.250Z,996.26
2018-12-19T08:46:07.265Z,996.31
2018-12-19T08:47:07.282Z,996.3
2018-12-19T08:48:07.304Z,996.3
2018-12-19T08:49:07.315Z,996.34
2018-12-19T08:50:07.332Z,996.32
2018-12-19T08:51:07.354Z,996.34
2018-12-19T08:52:07.367Z,996.33
2018-12-19T08:53:07.383Z,996.38
2018-12-19T08:54:07.401Z,996.37
2018-12-19T08:55:07.419Z,996.36
2018-12-19T08:56:07.438Z,996.39
2018-12-19T08:57:07.451Z,996.4
2018-12-19T08:58:07.468Z,996.4
2018-12-19T08:59:07.485Z,996.42
2018-12-19T09:00:07.506Z,996.43
2018-12-19T09:01:07.518Z,996.46
2018-12-19T09:02:07.539Z,996.46
2018-12-19T09:03:07.559Z,996.49
2018-12-19T09:04:07.568Z,996.53
2018-12-19T09:05:07.587Z,996.52
2018-12-19T09:06:07.603Z,996.55
2018-12-19T09:07:07.624Z,996.58
2018-12-19T09:08:07.640Z,996.56
2018-12-19T09:09:07.657Z,996.55
2018-12-19T09:10:07.672Z,996.58
2018-12-19T09:11:07.687Z,996.61
2018-12-19T09:12:07.703Z,996.62
2018-12-19T09:13:07.720Z,996.58
2018-12-19T09:14:07.738Z,996.59
2018-12-19T09:15:07.754Z,996.61
2018-12-19T09:16:07.772Z,996.61
2018-12-19T09:17:07.792Z,996.67
2018-12-19T09:18:07.804Z,996.67
2018-12-19T09:19:07.821Z,996.76
2018-12-19T09:20:07.836Z,996.68
2018-12-19T09:21:07.859Z,996.76
2018-12-19T09:22:07.871Z,996.74
2018-12-19T09:23:07.888Z,996.72
2018-12-19T09:24:07.919Z,996.75
2018-12-19T09:25:07.923Z,996.75
2018-12-19T09:26:07.938Z,996.8
2018-12-19T09:27:07.959Z,996.78
2018-12-19T09:28:07.972Z,996.73
2018-12-19T09:29:07.995Z,996.82
2018-12-19T09:30:08.005Z,996.8
2018-12-19T09:31:08.028Z,996.81
2018-12-19T09:32:08.041Z,996.77
2018-12-19T09:33:08.056Z,996.8
2018-12-19T09:34:08.074Z,996.81
2018-12-19T09:35:08.090Z,996.71
2018-12-19T09:36:08.109Z,996.8
2018-12-19T09:37:08.125Z,996.76
2018-12-19T09:38:08.143Z,996.78
2018-12-19T09:39:08.163Z,996.84
2018-12-19T09:40:08.175Z,996.82
2018-12-19T09:41:12.219Z,996.84
2018-12-19T09:42:08.213Z,996.82
2018-12-19T09:43:08.226Z,996.9
2018-12-19T09:44:08.659Z,996.84
2018-12-19T09:45:08.261Z,996.89
2018-12-19T09:46:08.277Z,996.89
2018-12-19T09:47:08.295Z,996.9
2018-12-19T09:48:08.315Z,996.89
2018-12-19T09:49:12.308Z,996.94
2018-12-19T09:50:08.346Z,996.91
2018-12-19T09:51:08.362Z,996.97
2018-12-19T09:52:08.386Z,996.94
2018-12-19T09:53:08.396Z,996.95
2018-12-19T09:54:08.415Z,996.93
2018-12-19T09:55:08.430Z,996.92
2018-12-19T09:56:08.447Z,996.92
2018-12-19T09:57:08.465Z,996.92
2018-12-19T09:58:08.481Z,996.93
2018-12-19T09:59:08.500Z,996.91
2018-12-19T10:00:08.516Z,996.96
2018-12-19T10:01:08.531Z,996.92
2018-12-19T10:02:08.551Z,996.88
2018-12-19T10:03:08.565Z,996.89
2018-12-19T10:04:08.584Z,996.9
2018-12-19T10:05:08.605Z,996.95
2018-12-19T10:06:08.616Z,996.95
2018-12-19T10:07:08.635Z,996.92
2018-12-19T10:08:08.656Z,996.91
2018-12-19T10:09:14.491Z,996.9
2018-12-19T10:10:08.691Z,996.9
2018-12-19T10:11:08.733Z,996.9
2018-12-19T10:12:08.725Z,996.89
2018-12-19T10:13:08.740Z,996.92
2018-12-19T10:14:08.754Z,996.91
2018-12-19T10:15:08.773Z,996.91
2018-12-19T10:16:08.796Z,996.88
2018-12-19T10:17:08.806Z,996.88
2018-12-19T10:18:08.826Z,996.84
2018-12-19T10:19:08.844Z,996.82
2018-12-19T10:20:08.857Z,996.86
2018-12-19T10:21:08.878Z,996.75
2018-12-19T10:22:08.896Z,996.77
2018-12-19T10:23:08.909Z,996.79
2018-12-19T10:24:08.929Z,996.8
2018-12-19T10:25:08.944Z,996.75
2018-12-19T10:26:08.961Z,996.76
2018-12-19T10:27:08.978Z,996.78
2018-12-19T10:28:08.994Z,996.76
2018-12-19T10:29:09.011Z,996.82
2018-12-19T10:30:09.029Z,996.75
2018-12-19T10:31:09.048Z,996.77
2018-12-19T10:32:09.063Z,996.77
2018-12-19T10:33:09.080Z,996.75
2018-12-19T10:34:09.097Z,996.75
2018-12-19T10:35:09.114Z,996.75
2018-12-19T10:36:09.194Z,996.75
2018-12-19T10:37:09.151Z,996.75
2018-12-19T10:38:09.169Z,996.8
2018-12-19T10:39:09.186Z,996.78
2018-12-19T10:40:09.209Z,996.72
2018-12-19T10:41:09.216Z,996.77
2018-12-19T10:42:09.235Z,996.76
2018-12-19T10:43:09.255Z,996.74
2018-12-19T10:44:09.269Z,996.7
2018-12-19T10:45:09.290Z,996.71
2018-12-19T10:46:09.301Z,996.66
2018-12-19T10:47:09.326Z,996.66
2018-12-19T10:48:09.336Z,996.66
2018-12-19T10:49:09.359Z,996.67
2018-12-19T10:50:09.371Z,996.67
2018-12-19T10:51:09.389Z,996.68
2018-12-19T10:52:09.406Z,996.65
2018-12-19T10:53:09.422Z,996.64
2018-12-19T10:54:09.439Z,996.59
2018-12-19T10:55:09.462Z,996.6
2018-12-19T10:56:09.474Z,996.63
2018-12-19T10:57:09.494Z,996.63
2018-12-19T10:58:09.508Z,996.67
2018-12-19T10:59:09.530Z,996.72
2018-12-19T11:00:09.543Z,996.71
2018-12-19T11:01:09.558Z,996.73
2018-12-19T11:02:09.576Z,996.74
2018-12-19T11:03:09.593Z,996.78
2018-12-19T11:04:09.609Z,996.77
2018-12-19T11:05:09.640Z,996.79
2018-12-19T11:06:09.643Z,996.77
2018-12-19T11:07:09.661Z,996.75
2018-12-19T11:08:09.680Z,996.76
2018-12-19T11:09:09.703Z,996.69
2018-12-19T11:10:09.714Z,996.7
2018-12-19T11:11:09.734Z,996.67
2018-12-19T11:12:09.747Z,996.74
2018-12-19T11:13:09.768Z,996.75
2018-12-19T11:14:09.782Z,996.78
2018-12-19T11:15:09.798Z,996.74
2018-12-19T11:16:09.814Z,996.71
2018-12-19T11:17:09.834Z,996.7
2018-12-19T11:18:09.849Z,996.64
2018-12-19T11:19:09.869Z,996.69
2018-12-19T11:20:09.884Z,996.67
2018-12-19T11:21:09.905Z,996.72
2018-12-19T11:22:09.922Z,996.7
2018-12-19T11:23:09.939Z,996.69
2018-12-19T11:24:09.951Z,996.68
2018-12-19T11:25:09.970Z,996.69
2018-12-19T11:26:09.988Z,996.67
2018-12-19T11:27:10.007Z,996.7
2018-12-19T11:28:10.022Z,996.72
2018-12-19T11:29:10.038Z,996.71
2018-12-19T11:30:10.055Z,996.76
2018-12-19T11:31:10.078Z,996.77
2018-12-19T11:32:10.090Z,996.72
2018-12-19T11:33:10.112Z,996.73
2018-12-19T11:34:10.125Z,996.67
2018-12-19T11:35:10.142Z,996.73
2018-12-19T11:36:10.264Z,996.73
2018-12-19T11:37:10.180Z,996.71
2018-12-19T11:38:10.193Z,996.71
2018-12-19T11:39:10.210Z,996.71
2018-12-19T11:40:10.229Z,996.66
2018-12-19T11:41:10.245Z,996.69
2018-12-19T11:42:10.266Z,996.65
2018-12-19T11:43:10.280Z,996.67
2018-12-19T11:44:10.297Z,996.64
2018-12-19T11:45:10.314Z,996.64
2018-12-19T11:46:10.332Z,996.62
2018-12-19T11:47:10.354Z,996.59
2018-12-19T11:48:10.370Z,996.58
2018-12-19T11:49:10.385Z,996.61
2018-12-19T11:50:10.400Z,996.65
2018-12-19T11:51:10.418Z,996.61
2018-12-19T11:52:10.435Z,996.61
2018-12-19T11:53:10.452Z,996.59
2018-12-19T11:54:10.475Z,996.58
2018-12-19T11:55:10.494Z,996.55
2018-12-19T11:56:10.505Z,996.58
2018-12-19T11:57:10.525Z,996.53
2018-12-19T11:58:10.547Z,996.55
2018-12-19T11:59:10.560Z,996.54
2018-12-19T12:00:10.574Z,996.52
2018-12-19T12:01:10.592Z,996.53
2018-12-19T12:02:10.613Z,996.52
2018-12-19T12:03:10.630Z,996.52
2018-12-19T12:04:10.645Z,996.53
2018-12-19T12:05:10.664Z,996.51
2018-12-19T12:06:10.681Z,996.52
2018-12-19T12:07:10.698Z,996.54
2018-12-19T12:08:10.713Z,996.52
2018-12-19T12:09:10.731Z,996.55
2018-12-19T12:10:10.751Z,996.53
2018-12-19T12:11:10.766Z,996.55
2018-12-19T12:12:10.781Z,996.54
2018-12-19T12:13:10.802Z,996.52
2018-12-19T12:14:10.820Z,996.56
2018-12-19T12:15:10.834Z,996.54
2018-12-19T12:16:10.853Z,996.54
2018-12-19T12:17:10.874Z,996.49
2018-12-19T12:18:10.891Z,996.53
2018-12-19T12:19:10.905Z,996.52
2018-12-19T12:20:10.924Z,996.5
2018-12-19T12:21:10.943Z,996.52
2018-12-19T12:22:10.957Z,996.48
2018-12-19T12:23:10.976Z,996.5
2018-12-19T12:24:10.996Z,996.47
2018-12-19T12:25:11.011Z,996.4
2018-12-19T12:26:11.027Z,996.42
2018-12-19T12:27:11.047Z,996.36
2018-12-19T12:28:11.067Z,996.36
2018-12-19T12:29:11.079Z,996.33
2018-12-19T12:30:11.098Z,996.35
2018-12-19T12:31:11.117Z,996.33
2018-12-19T12:32:11.134Z,996.34